Wanatah, Indiana
Current Conditions -  °F | °C
As of 8:56 PM on Tuesday 25 Nov 2014 (Local Time) from KVPZ Reporting Station
Overcast Overcast  
Wind Chill: -8°   Ceiling: 1400
Heat Index: -5°   Visibility: 10mi
Dew Point: -8°   Wind: 5mph
Humidity: 78%   Direction: 160°SSE
Pressure: 30.21"   Gusts: NA
Location:  41.43°N, 86.9°W
Report Text: KVPZ 260256Z AUTO 16004KT 10SM OVC014 M05/M08 A3021 RMK AO2 SLP241 T10501083 51009 TSNO
Loading
Personal Weather Stations






























Interactive Weather Map New forecast layout! Learn more

10-Day Weather Forecast

Advertisements
Track Severe Weather on mobile